createdAt,value
2018-08-18T00:00:24.766Z,48.92
2018-08-18T00:02:53.994Z,49.19
2018-08-18T00:05:23.153Z,48.36
2018-08-18T00:07:52.227Z,48.75
2018-08-18T00:10:22.697Z,48.69
2018-08-18T00:12:51.952Z,49.04
2018-08-18T00:15:21.181Z,49.16
2018-08-18T00:17:50.335Z,48.19
2018-08-18T00:20:24.177Z,47.96
2018-08-18T00:22:53.438Z,47.78
2018-08-18T00:25:22.669Z,47.30
2018-08-18T00:27:51.823Z,48.14
2018-08-18T00:30:25.881Z,47.99
2018-08-18T00:32:55.869Z,49.14
2018-08-18T00:35:25.221Z,48.41
2018-08-18T00:37:54.332Z,47.40
2018-08-18T00:40:23.495Z,48.64
2018-08-18T00:42:52.690Z,47.64
2018-08-18T00:45:21.878Z,48.75
2018-08-18T00:47:51.565Z,49.19
2018-08-18T00:50:35.014Z,49.42
2018-08-18T00:53:05.325Z,48.08
2018-08-18T00:55:34.734Z,48.63
2018-08-18T00:58:04.064Z,49.57
2018-08-18T01:00:33.316Z,48.52
2018-08-18T01:03:02.559Z,47.86
2018-08-18T01:05:31.791Z,48.76
2018-08-18T01:08:00.921Z,47.18
2018-08-18T01:10:31.125Z,47.42
2018-08-18T01:13:00.257Z,45.84
2018-08-18T01:15:29.515Z,46.83
2018-08-18T01:17:58.637Z,45.81
2018-08-18T01:20:27.776Z,46.31
2018-08-18T01:23:01.133Z,45.87
2018-08-18T01:25:30.490Z,45.70
2018-08-18T01:28:00.815Z,45.56
2018-08-18T01:30:30.100Z,45.30
2018-08-18T01:32:59.158Z,45.24
2018-08-18T01:35:28.458Z,46.40
2018-08-18T01:37:57.592Z,46.57
2018-08-18T01:40:26.833Z,46.62
2018-08-18T01:42:55.946Z,47.77
2018-08-18T01:45:25.115Z,48.05
2018-08-18T01:47:54.300Z,48.52
2018-08-18T01:50:23.424Z,48.79
2018-08-18T01:52:52.526Z,48.14
2018-08-18T01:55:21.569Z,48.71
2018-08-18T01:57:50.683Z,48.85
2018-08-18T02:00:27.369Z,48.30
2018-08-18T02:02:56.542Z,48.39
2018-08-18T02:05:26.642Z,48.62
2018-08-18T02:07:55.876Z,48.10
2018-08-18T02:10:25.033Z,48.54
2018-08-18T02:13:00.718Z,48.51
2018-08-18T02:15:30.485Z,48.12
2018-08-18T02:17:59.660Z,49.03
2018-08-18T02:20:28.756Z,48.79
2018-08-18T02:22:57.923Z,49.18
2018-08-18T02:25:26.997Z,49.99
2018-08-18T02:27:56.182Z,50.52
2018-08-18T02:30:25.274Z,50.40
2018-08-18T02:32:54.441Z,50.27
2018-08-18T02:35:24.306Z,50.15
2018-08-18T02:37:53.574Z,50.61
2018-08-18T02:40:22.660Z,50.62
2018-08-18T02:43:09.162Z,52.09
2018-08-18T02:45:38.270Z,51.34
2018-08-18T02:48:14.426Z,50.98
2018-08-18T02:50:52.095Z,50.78
2018-08-18T02:53:25.395Z,51.30
2018-08-18T02:55:55.542Z,51.20
2018-08-18T02:58:24.694Z,51.44
2018-08-18T03:00:53.788Z,51.66
2018-08-18T03:03:23.072Z,51.94
2018-08-18T03:05:52.637Z,51.47
2018-08-18T03:08:22.051Z,51.42
2018-08-18T03:10:51.198Z,51.65
2018-08-18T03:13:20.526Z,52.35
2018-08-18T03:15:58.152Z,51.97
2018-08-18T03:18:35.149Z,51.75
2018-08-18T03:21:04.423Z,51.34
2018-08-18T03:23:34.422Z,51.67
2018-08-18T03:26:03.617Z,51.35
2018-08-18T03:28:43.114Z,51.29
2018-08-18T03:31:12.247Z,51.33
2018-08-18T03:33:41.491Z,51.88
2018-08-18T03:36:24.116Z,51.71
2018-08-18T03:38:54.617Z,51.50
2018-08-18T03:41:24.745Z,52.99
2018-08-18T03:43:54.669Z,52.06
2018-08-18T03:46:23.769Z,52.22
2018-08-18T03:48:53.018Z,52.50
2018-08-18T03:51:30.640Z,52.08
2018-08-18T03:54:00.157Z,52.56
2018-08-18T03:56:29.288Z,53.61
2018-08-18T03:58:59.256Z,53.78
2018-08-18T04:01:40.075Z,53.29
2018-08-18T04:04:10.453Z,53.26
2018-08-18T04:06:40.603Z,51.91
2018-08-18T04:09:14.209Z,54.11
2018-08-18T04:11:43.325Z,53.35
2018-08-18T04:14:12.553Z,52.48
2018-08-18T04:16:57.763Z,53.88
2018-08-18T04:19:26.944Z,53.19
2018-08-18T04:21:56.739Z,53.90
2018-08-18T04:24:32.660Z,54.03
2018-08-18T04:27:02.573Z,57.06
2018-08-18T04:29:31.780Z,55.75
2018-08-18T04:32:01.830Z,55.02
2018-08-18T04:34:31.051Z,57.79
2018-08-18T04:37:01.769Z,56.62
2018-08-18T04:39:30.970Z,56.42
2018-08-18T04:42:00.104Z,55.26
2018-08-18T04:44:29.406Z,54.89
2018-08-18T04:46:58.497Z,54.36
2018-08-18T04:49:27.769Z,57.46
2018-08-18T04:51:56.896Z,55.45
2018-08-18T04:54:26.065Z,54.04
2018-08-18T04:56:55.312Z,56.78
2018-08-18T04:59:24.622Z,59.05
2018-08-18T05:01:53.733Z,57.56
2018-08-18T05:04:23.007Z,56.68
2018-08-18T05:06:52.179Z,57.52
2018-08-18T05:09:21.389Z,58.45
2018-08-18T05:11:50.535Z,56.90
2018-08-18T05:14:19.721Z,57.58
2018-08-18T05:16:48.974Z,57.52
2018-08-18T05:19:18.345Z,58.12
2018-08-18T05:21:47.670Z,58.13
2018-08-18T05:24:25.033Z,57.63
2018-08-18T05:26:55.432Z,56.34
2018-08-18T05:29:24.692Z,54.57
2018-08-18T05:31:53.912Z,53.12
2018-08-18T05:34:23.030Z,54.89
2018-08-18T05:36:52.183Z,56.55
2018-08-18T05:39:21.298Z,56.44
2018-08-18T05:41:50.452Z,56.43
2018-08-18T05:44:19.627Z,57.17
2018-08-18T05:46:49.251Z,54.70
2018-08-18T05:49:18.391Z,53.46
2018-08-18T05:51:49.881Z,53.33
2018-08-18T05:54:25.509Z,52.40
2018-08-18T05:56:54.707Z,54.71
2018-08-18T05:59:24.153Z,55.94
2018-08-18T06:01:53.720Z,52.26
2018-08-18T06:04:23.259Z,52.61
2018-08-18T06:06:53.067Z,51.76
2018-08-18T06:09:23.131Z,51.43
2018-08-18T06:11:52.606Z,50.67
2018-08-18T06:14:21.802Z,51.92
2018-08-18T06:16:51.005Z,52.29
2018-08-18T06:19:20.264Z,52.23
2018-08-18T06:21:49.534Z,51.12
2018-08-18T06:24:18.802Z,48.77
2018-08-18T06:26:47.990Z,48.87
2018-08-18T06:29:17.802Z,49.54
2018-08-18T06:31:59.396Z,48.99
2018-08-18T06:34:30.640Z,50.68
2018-08-18T06:37:00.113Z,50.47
2018-08-18T06:39:36.714Z,50.12
2018-08-18T06:42:10.568Z,50.28
2018-08-18T06:44:39.716Z,49.59
2018-08-18T06:47:09.008Z,52.47
2018-08-18T06:49:38.220Z,49.60
2018-08-18T06:52:07.453Z,49.42
2018-08-18T06:54:36.651Z,48.47
2018-08-18T06:57:05.922Z,48.25
2018-08-18T06:59:35.297Z,46.38
2018-08-18T07:02:04.505Z,45.17
2018-08-18T07:04:33.764Z,45.35
2018-08-18T07:07:03.348Z,45.57
2018-08-18T07:09:32.459Z,44.77
2018-08-18T07:12:01.754Z,44.24
2018-08-18T07:14:31.038Z,41.52
2018-08-18T07:17:00.173Z,40.07
2018-08-18T07:19:29.480Z,40.58
2018-08-18T07:21:58.812Z,40.94
2018-08-18T07:24:27.954Z,42.73
2018-08-18T07:26:57.181Z,40.39
2018-08-18T07:29:27.333Z,38.26
2018-08-18T07:31:56.580Z,37.80
2018-08-18T07:34:25.819Z,38.33
2018-08-18T07:36:55.537Z,38.90
2018-08-18T07:39:25.421Z,39.08
2018-08-18T07:41:54.623Z,36.85
2018-08-18T07:44:24.076Z,35.51
2018-08-18T07:46:53.412Z,36.85
2018-08-18T07:49:22.671Z,34.46
2018-08-18T07:51:51.900Z,35.60
2018-08-18T07:54:21.261Z,34.45
2018-08-18T07:56:50.603Z,34.51
2018-08-18T07:59:19.825Z,33.09
2018-08-18T08:01:49.127Z,32.99
2018-08-18T08:04:18.309Z,32.88
2018-08-18T08:06:47.804Z,33.06
2018-08-18T08:09:17.467Z,31.92
2018-08-18T08:11:46.753Z,33.25
2018-08-18T08:14:16.010Z,32.71
2018-08-18T08:16:45.376Z,33.55
2018-08-18T08:19:14.564Z,32.15
2018-08-18T08:21:43.872Z,30.79
2018-08-18T08:24:13.077Z,31.96
2018-08-18T08:26:42.373Z,31.19
2018-08-18T08:29:11.615Z,31.28
2018-08-18T08:31:40.833Z,31.10
2018-08-18T08:34:10.388Z,30.86
2018-08-18T08:36:39.685Z,29.77
2018-08-18T08:39:08.965Z,29.20
2018-08-18T08:41:38.383Z,30.10
2018-08-18T08:44:07.657Z,30.23
2018-08-18T08:46:42.984Z,32.00
2018-08-18T08:49:12.482Z,29.86
2018-08-18T08:51:41.724Z,28.83
2018-08-18T08:54:10.933Z,28.39
2018-08-18T08:56:40.701Z,28.54
2018-08-18T08:59:09.934Z,31.10
2018-08-18T09:01:39.155Z,29.21
2018-08-18T09:04:08.428Z,28.12
2018-08-18T09:06:41.678Z,29.33
2018-08-18T09:09:10.955Z,29.13
2018-08-18T09:11:40.132Z,30.68
2018-08-18T09:14:09.704Z,30.19
2018-08-18T09:16:38.953Z,30.61
2018-08-18T09:19:08.269Z,30.60
2018-08-18T09:21:42.487Z,29.36
2018-08-18T09:24:11.772Z,30.51
2018-08-18T09:26:45.970Z,30.18
2018-08-18T09:29:15.777Z,27.44
2018-08-18T09:31:45.776Z,26.43
2018-08-18T09:34:15.464Z,28.49
2018-08-18T09:36:45.469Z,27.66
2018-08-18T09:39:37.883Z,28.29
2018-08-18T09:42:09.285Z,26.92
2018-08-18T09:44:43.960Z,26.10
2018-08-18T09:47:13.396Z,24.92
2018-08-18T09:49:42.866Z,25.59
2018-08-18T09:52:14.527Z,25.63
2018-08-18T09:54:43.682Z,26.48
2018-08-18T09:57:12.947Z,25.70
2018-08-18T09:59:42.499Z,27.51
2018-08-18T10:02:13.816Z,27.05
2018-08-18T10:04:43.030Z,26.91
2018-08-18T10:07:12.391Z,26.63
2018-08-18T10:09:41.734Z,26.83
2018-08-18T10:12:10.977Z,28.58
2018-08-18T10:14:40.264Z,27.11
2018-08-18T10:17:09.494Z,25.62
2018-08-18T10:19:38.820Z,24.87
2018-08-18T10:22:08.113Z,24.93
2018-08-18T10:24:37.596Z,24.51
2018-08-18T10:27:07.551Z,24.82
2018-08-18T10:29:36.834Z,24.64
2018-08-18T10:32:06.144Z,24.96
2018-08-18T10:34:35.473Z,23.04
2018-08-18T10:37:06.123Z,22.58
2018-08-18T10:39:36.610Z,23.73
2018-08-18T10:42:10.790Z,24.02
2018-08-18T10:44:47.413Z,24.06
2018-08-18T10:47:17.860Z,24.09
2018-08-18T10:49:57.883Z,24.14
2018-08-18T10:52:38.791Z,22.75
2018-08-18T10:55:13.096Z,23.12
2018-08-18T10:57:53.935Z,22.91
2018-08-18T11:00:25.429Z,22.55
2018-08-18T11:02:55.782Z,21.74
2018-08-18T11:05:26.005Z,21.71
2018-08-18T11:08:01.124Z,21.18
2018-08-18T11:10:31.853Z,20.46
2018-08-18T11:13:01.200Z,21.04
2018-08-18T11:15:30.529Z,20.27
2018-08-18T11:18:00.267Z,20.83
2018-08-18T11:20:31.780Z,21.07
2018-08-18T11:23:13.910Z,20.86
2018-08-18T11:25:50.743Z,20.02
2018-08-18T11:28:20.646Z,20.41
2018-08-18T11:30:54.126Z,19.28
2018-08-18T11:33:35.957Z,19.23
2018-08-18T11:36:06.806Z,18.28
2018-08-18T11:38:36.093Z,18.79
2018-08-18T11:41:05.346Z,18.72
2018-08-18T11:43:44.964Z,21.09
2018-08-18T11:46:14.333Z,18.82
2018-08-18T11:48:43.594Z,18.80
2018-08-18T11:51:12.753Z,17.91
2018-08-18T11:53:53.103Z,18.75
2018-08-18T11:56:22.301Z,18.99
2018-08-18T11:59:03.262Z,19.92
2018-08-18T12:01:35.835Z,21.17
2018-08-18T12:04:05.003Z,20.29
2018-08-18T12:06:34.176Z,20.04
2018-08-18T12:09:03.503Z,22.10
2018-08-18T12:11:32.774Z,21.37
2018-08-18T12:14:02.155Z,20.94
2018-08-18T12:16:31.338Z,20.43
2018-08-18T12:19:00.520Z,19.90
2018-08-18T12:21:33.952Z,19.65
2018-08-18T12:24:03.104Z,19.58
2018-08-18T12:26:32.404Z,19.58
2018-08-18T12:29:02.012Z,19.01
2018-08-18T12:31:31.366Z,18.77
2018-08-18T12:34:00.662Z,21.03
2018-08-18T12:36:30.078Z,19.85
2018-08-18T12:38:59.528Z,19.50
2018-08-18T12:41:28.814Z,20.62
2018-08-18T12:43:59.195Z,18.29
2018-08-18T12:46:36.479Z,19.70
2018-08-18T12:49:06.876Z,20.79
2018-08-18T12:51:36.152Z,20.36
2018-08-18T12:54:05.395Z,19.03
2018-08-18T12:56:34.585Z,18.82
2018-08-18T12:59:03.942Z,19.06
2018-08-18T13:01:47.249Z,18.80
2018-08-18T13:04:19.411Z,18.45
2018-08-18T13:06:50.868Z,17.61
2018-08-18T13:09:21.255Z,18.42
2018-08-18T13:11:51.762Z,16.90
2018-08-18T13:14:22.591Z,16.89
2018-08-18T13:16:51.820Z,17.08
2018-08-18T13:19:23.320Z,17.90
2018-08-18T13:21:52.775Z,17.21
2018-08-18T13:24:22.093Z,16.86
2018-08-18T13:26:51.327Z,16.93
2018-08-18T13:29:20.625Z,17.90
2018-08-18T13:31:50.072Z,17.57
2018-08-18T13:34:19.746Z,17.64
2018-08-18T13:36:48.962Z,16.66
2018-08-18T13:39:19.433Z,17.29
2018-08-18T13:41:49.685Z,16.69
2018-08-18T13:44:31.122Z,16.78
2018-08-18T13:47:00.334Z,17.22
2018-08-18T13:49:29.670Z,14.87
2018-08-18T13:51:58.932Z,14.75
2018-08-18T13:54:28.299Z,16.27
2018-08-18T13:56:57.545Z,15.82
2018-08-18T13:59:46.998Z,16.38
2018-08-18T14:02:16.620Z,14.74
2018-08-18T14:04:46.262Z,15.34
2018-08-18T14:07:15.815Z,14.57
2018-08-18T14:09:56.220Z,15.70
2018-08-18T14:12:25.823Z,14.73
2018-08-18T14:14:56.308Z,15.27
2018-08-18T14:17:26.159Z,15.26
2018-08-18T14:19:55.512Z,15.96
2018-08-18T14:22:25.226Z,14.60
2018-08-18T14:24:54.845Z,14.76
2018-08-18T14:27:24.874Z,15.13
2018-08-18T14:29:54.234Z,14.96
2018-08-18T14:32:29.523Z,15.16
2018-08-18T14:35:07.846Z,14.36
2018-08-18T14:37:39.061Z,14.12
2018-08-18T14:40:10.495Z,13.92
2018-08-18T14:42:39.756Z,14.22
2018-08-18T14:45:11.379Z,14.32
2018-08-18T14:47:40.780Z,13.94
2018-08-18T14:50:22.692Z,14.10
2018-08-18T14:52:52.038Z,13.47
2018-08-18T14:55:21.332Z,13.83
2018-08-18T14:57:56.812Z,12.62
2018-08-18T15:00:26.140Z,11.80
2018-08-18T15:02:55.553Z,11.98
2018-08-18T15:05:24.834Z,11.82
2018-08-18T15:07:55.494Z,10.40
2018-08-18T15:10:37.549Z,10.75
2018-08-18T15:13:07.687Z,10.58
2018-08-18T15:15:37.290Z,10.97
2018-08-18T15:18:09.551Z,11.46
2018-08-18T15:20:39.862Z,10.82
2018-08-18T15:23:09.971Z,10.90
2018-08-18T15:25:40.119Z,11.42
2018-08-18T15:28:10.816Z,10.15
2018-08-18T15:30:42.467Z,10.88
2018-08-18T15:33:15.137Z,10.60
2018-08-18T15:35:44.596Z,11.21
2018-08-18T15:38:14.108Z,11.41
2018-08-18T15:40:43.568Z,11.16
2018-08-18T15:43:12.898Z,10.87
2018-08-18T15:45:54.489Z,10.65
2018-08-18T15:48:23.908Z,10.75
2018-08-18T15:50:53.116Z,11.40
2018-08-18T15:53:54.446Z,10.45
2018-08-18T15:56:24.626Z,10.08
2018-08-18T15:58:54.939Z,9.95
2018-08-18T16:01:26.878Z,9.99
2018-08-18T16:03:57.217Z,10.27
2018-08-18T16:06:26.467Z,10.30
2018-08-18T16:08:55.917Z,12.47
2018-08-18T16:11:25.303Z,11.60
2018-08-18T16:13:54.803Z,11.82
2018-08-18T16:16:24.079Z,12.03
2018-08-18T16:19:03.334Z,11.94
2018-08-18T16:21:33.771Z,11.63
2018-08-18T16:24:03.418Z,11.94
2018-08-18T16:26:32.587Z,11.71
2018-08-18T16:29:01.863Z,12.26
2018-08-18T16:31:31.232Z,12.05
2018-08-18T16:34:00.497Z,12.40
2018-08-18T16:36:35.174Z,12.06
2018-08-18T16:39:04.898Z,12.52
2018-08-18T16:41:34.386Z,12.91
2018-08-18T16:44:03.731Z,13.04
2018-08-18T16:46:33.185Z,13.96
2018-08-18T16:49:02.527Z,13.59
2018-08-18T16:51:31.773Z,12.63
2018-08-18T16:54:16.923Z,13.19
2018-08-18T16:56:46.296Z,13.05
2018-08-18T16:59:15.656Z,13.39
2018-08-18T17:01:45.013Z,13.35
2018-08-18T17:04:18.505Z,13.98
2018-08-18T17:06:48.409Z,13.72
2018-08-18T17:09:28.438Z,13.76
2018-08-18T17:12:11.525Z,13.78
2018-08-18T17:14:41.198Z,14.31
2018-08-18T17:17:11.374Z,14.38
2018-08-18T17:19:41.222Z,14.00
2018-08-18T17:22:11.850Z,14.76
2018-08-18T17:24:41.190Z,14.34
2018-08-18T17:27:10.538Z,15.01
2018-08-18T17:29:41.285Z,15.18
2018-08-18T17:32:11.012Z,14.61
2018-08-18T17:34:40.633Z,14.89
2018-08-18T17:37:10.014Z,15.23
2018-08-18T17:39:39.503Z,15.50
2018-08-18T17:42:08.880Z,15.41
2018-08-18T17:44:38.251Z,15.63
2018-08-18T17:47:09.984Z,15.79
2018-08-18T17:49:58.101Z,16.06
2018-08-18T17:52:28.263Z,15.66
2018-08-18T17:55:10.545Z,16.26
2018-08-18T17:57:40.461Z,16.38
2018-08-18T18:00:19.611Z,16.99
2018-08-18T18:02:54.500Z,17.12
2018-08-18T18:05:28.482Z,17.11
2018-08-18T18:08:00.056Z,17.10
2018-08-18T18:10:33.683Z,17.37
2018-08-18T18:13:05.944Z,17.43
2018-08-18T18:15:38.607Z,17.97
2018-08-18T18:18:10.235Z,17.89
2018-08-18T18:20:39.770Z,17.48
2018-08-18T18:23:11.805Z,18.10
2018-08-18T18:25:41.209Z,18.10
2018-08-18T18:28:10.771Z,17.86
2018-08-18T18:30:40.177Z,18.16
2018-08-18T18:33:10.492Z,18.03
2018-08-18T18:35:39.898Z,18.27
2018-08-18T18:38:09.266Z,18.70
2018-08-18T18:40:42.474Z,18.96
2018-08-18T18:43:11.859Z,19.27
2018-08-18T18:45:41.289Z,19.08
2018-08-18T18:48:12.918Z,18.94
2018-08-18T18:50:43.863Z,18.60
2018-08-18T18:53:13.130Z,19.00
2018-08-18T18:55:47.310Z,19.74
2018-08-18T18:58:16.703Z,19.73
2018-08-18T19:00:55.837Z,19.99
2018-08-18T19:03:25.021Z,21.20
2018-08-18T19:05:54.488Z,20.07
2018-08-18T19:08:23.749Z,21.50
2018-08-18T19:10:53.018Z,21.97
2018-08-18T19:13:22.248Z,22.25
2018-08-18T19:15:51.516Z,20.77
2018-08-18T19:18:20.805Z,21.09
2018-08-18T19:20:50.993Z,20.71
2018-08-18T19:23:21.190Z,21.16
2018-08-18T19:25:51.694Z,21.97
2018-08-18T19:28:22.872Z,23.44
2018-08-18T19:30:52.173Z,22.49
2018-08-18T19:33:21.510Z,23.54
2018-08-18T19:35:52.198Z,23.13
2018-08-18T19:38:22.269Z,24.46
2018-08-18T19:40:55.016Z,23.98
2018-08-18T19:43:25.372Z,23.48
2018-08-18T19:45:55.204Z,23.88
2018-08-18T19:48:28.707Z,23.50
2018-08-18T19:51:04.567Z,24.07
2018-08-18T19:53:35.117Z,23.51
2018-08-18T19:56:08.880Z,25.13
2018-08-18T19:58:38.123Z,24.25
2018-08-18T20:01:07.963Z,24.55
2018-08-18T20:03:37.184Z,24.06
2018-08-18T20:06:10.461Z,24.44
2018-08-18T20:08:39.800Z,24.26
2018-08-18T20:11:09.074Z,23.88
2018-08-18T20:13:38.283Z,24.54
2018-08-18T20:16:07.825Z,24.79
2018-08-18T20:18:37.110Z,25.14
2018-08-18T20:21:06.414Z,25.52
2018-08-18T20:23:35.731Z,27.73
2018-08-18T20:26:05.107Z,29.10
2018-08-18T20:28:34.529Z,29.62
2018-08-18T20:31:03.778Z,29.67
2018-08-18T20:33:32.971Z,27.77
2018-08-18T20:36:02.214Z,27.93
2018-08-18T20:38:49.768Z,27.99
2018-08-18T20:41:19.059Z,27.56
2018-08-18T20:43:49.141Z,27.89
2018-08-18T20:46:18.318Z,28.55
2018-08-18T20:48:48.554Z,28.67
2018-08-18T20:51:21.836Z,29.84
2018-08-18T20:53:51.103Z,28.60
2018-08-18T20:56:20.470Z,28.63
2018-08-18T20:58:49.770Z,29.28
2018-08-18T21:01:19.034Z,29.31
2018-08-18T21:03:50.494Z,29.81
2018-08-18T21:06:20.321Z,30.98
2018-08-18T21:08:49.522Z,31.80
2018-08-18T21:11:18.886Z,31.88
2018-08-18T21:13:51.080Z,32.93
2018-08-18T21:16:21.225Z,32.42
2018-08-18T21:18:50.493Z,32.40
2018-08-18T21:21:32.314Z,31.79
2018-08-18T21:24:01.508Z,32.95
2018-08-18T21:26:30.784Z,32.89
2018-08-18T21:29:00.019Z,32.98
2018-08-18T21:31:36.500Z,32.98
2018-08-18T21:34:06.994Z,32.36
2018-08-18T21:36:36.462Z,32.48
2018-08-18T21:39:09.754Z,31.85
2018-08-18T21:41:43.879Z,34.57
2018-08-18T21:44:14.239Z,32.91
2018-08-18T21:46:43.797Z,32.71
2018-08-18T21:49:13.469Z,33.04
2018-08-18T21:51:42.670Z,33.18
2018-08-18T21:54:11.797Z,34.10
2018-08-18T21:56:42.473Z,33.53
2018-08-18T21:59:12.852Z,33.40
2018-08-18T22:01:42.252Z,33.48
2018-08-18T22:04:11.378Z,34.39
2018-08-18T22:06:40.602Z,33.99
2018-08-18T22:09:25.249Z,34.03
2018-08-18T22:11:54.430Z,34.36
2018-08-18T22:14:23.634Z,35.33
2018-08-18T22:16:55.842Z,35.44
2018-08-18T22:19:25.255Z,35.01
2018-08-18T22:21:54.465Z,35.45
2018-08-18T22:24:23.615Z,36.97
2018-08-18T22:26:52.907Z,37.04
2018-08-18T22:29:24.606Z,36.82
2018-08-18T22:31:53.863Z,37.37
2018-08-18T22:34:23.150Z,37.59
2018-08-18T22:36:56.280Z,36.68
2018-08-18T22:39:25.441Z,36.82
2018-08-18T22:41:54.620Z,36.90
2018-08-18T22:44:23.917Z,36.83
2018-08-18T22:46:53.119Z,36.85
2018-08-18T22:49:22.463Z,36.78
2018-08-18T22:51:51.598Z,37.38
2018-08-18T22:54:20.821Z,37.03
2018-08-18T22:56:54.819Z,36.97
2018-08-18T22:59:24.110Z,36.53
2018-08-18T23:01:53.253Z,36.73
2018-08-18T23:04:29.797Z,37.85
2018-08-18T23:06:59.863Z,36.61
2018-08-18T23:09:29.777Z,37.43
2018-08-18T23:12:00.563Z,37.41
2018-08-18T23:14:32.514Z,37.47
2018-08-18T23:17:02.206Z,37.12
2018-08-18T23:19:32.666Z,37.53
2018-08-18T23:22:02.166Z,37.99
2018-08-18T23:24:35.854Z,38.16
2018-08-18T23:27:05.190Z,38.60
2018-08-18T23:29:34.454Z,39.33
2018-08-18T23:32:16.935Z,39.79
2018-08-18T23:34:46.180Z,39.85
2018-08-18T23:37:19.442Z,40.32
2018-08-18T23:39:52.439Z,40.20
2018-08-18T23:42:24.041Z,40.62
2018-08-18T23:44:53.262Z,41.38
2018-08-18T23:47:22.402Z,41.72
2018-08-18T23:49:51.963Z,40.90
2018-08-18T23:52:21.139Z,40.64
2018-08-18T23:54:50.408Z,41.63
2018-08-18T23:57:19.694Z,42.26
2018-08-18T23:59:49.131Z,42.79
